createdAt,value
2023-03-23T15:59:52.892Z,14.87
2023-03-23T16:02:29.225Z,14.87
2023-03-23T16:05:04.795Z,14.88
2023-03-23T16:07:40.948Z,14.89
2023-03-23T16:10:22.338Z,14.87
2023-03-23T16:12:56.928Z,14.85
2023-03-23T16:15:33.094Z,14.87
2023-03-23T16:18:07.716Z,14.86
2023-03-23T16:20:50.208Z,14.85
2023-03-23T16:23:24.937Z,14.82
2023-03-23T16:26:01.579Z,14.82
2023-03-23T16:28:36.602Z,14.78
2023-03-23T16:31:10.210Z,14.77
2023-03-23T16:33:50.226Z,14.73
2023-03-23T16:36:27.985Z,14.68
2023-03-23T16:39:03.478Z,14.65
2023-03-23T16:41:42.358Z,14.65
2023-03-23T16:44:19.486Z,14.62
2023-03-23T16:46:58.427Z,14.58
2023-03-23T16:49:39.585Z,14.57
2023-03-23T16:52:13.582Z,14.52
2023-03-23T16:54:51.154Z,14.51
2023-03-23T16:57:31.310Z,14.50
2023-03-23T17:00:08.012Z,14.47
2023-03-23T17:02:45.606Z,14.45
2023-03-23T17:05:23.419Z,14.37
2023-03-23T17:08:04.000Z,14.35
2023-03-23T17:10:43.075Z,14.32
2023-03-23T17:13:22.530Z,14.27
2023-03-23T17:16:03.247Z,14.25
2023-03-23T17:18:47.722Z,14.22
2023-03-23T17:21:26.414Z,14.18
2023-03-23T17:24:04.443Z,14.15
2023-03-23T17:26:40.005Z,14.11
2023-03-23T17:29:18.863Z,14.05
2023-03-23T17:31:59.400Z,14.04
2023-03-23T17:34:34.331Z,13.97
2023-03-23T17:37:11.893Z,13.94
2023-03-23T17:39:47.570Z,13.91
2023-03-23T17:42:29.210Z,13.87
2023-03-23T17:45:22.980Z,13.82
2023-03-23T17:47:56.328Z,13.77
2023-03-23T17:50:32.704Z,13.73
2023-03-23T17:53:10.236Z,13.70
2023-03-23T17:55:46.671Z,13.68
2023-03-23T17:58:22.570Z,13.61
2023-03-23T18:01:02.280Z,13.58
2023-03-23T18:03:38.605Z,13.55
2023-03-23T18:06:15.197Z,13.54
2023-03-23T18:08:51.822Z,13.51
2023-03-23T18:11:26.867Z,13.49
2023-03-23T18:14:00.564Z,13.43
2023-03-23T18:16:35.450Z,13.39
2023-03-23T18:19:10.546Z,13.36
2023-03-23T18:21:51.379Z,13.30
2023-03-23T18:24:27.035Z,13.28
2023-03-23T18:27:03.397Z,13.25
2023-03-23T18:29:43.710Z,13.21
2023-03-23T18:32:22.093Z,13.17
2023-03-23T18:35:03.400Z,13.12
2023-03-23T18:37:42.125Z,13.07
2023-03-23T18:40:22.908Z,13.03
2023-03-23T18:43:00.828Z,12.99
2023-03-23T18:45:36.801Z,12.96
2023-03-23T18:48:14.356Z,12.93
2023-03-23T18:50:54.991Z,12.89
2023-03-23T18:53:33.874Z,12.84
2023-03-23T18:56:14.837Z,12.83
2023-03-23T18:58:53.300Z,12.79
2023-03-23T19:01:29.874Z,12.72
2023-03-23T19:04:07.467Z,12.69
2023-03-23T19:06:49.660Z,12.67
2023-03-23T19:09:25.645Z,12.65
2023-03-23T19:12:05.662Z,12.61
2023-03-23T19:14:43.606Z,12.58
2023-03-23T19:17:21.694Z,12.52
2023-03-23T19:19:59.052Z,12.48
2023-03-23T19:22:35.628Z,12.46
2023-03-23T19:25:12.938Z,12.43
2023-03-23T19:28:33.715Z,12.38
2023-03-23T19:30:51.206Z,12.35
2023-03-23T19:33:31.083Z,12.32
2023-03-23T19:36:12.986Z,12.30
2023-03-23T19:38:48.548Z,12.26
2023-03-23T19:41:30.242Z,12.22
2023-03-23T19:44:12.098Z,12.22
2023-03-23T19:46:49.393Z,12.23
2023-03-23T19:49:26.216Z,12.25
2023-03-23T19:52:08.027Z,12.28
2023-03-23T19:54:50.193Z,12.28
2023-03-23T19:57:29.314Z,12.26
2023-03-23T20:00:13.551Z,12.26
2023-03-23T20:02:52.604Z,12.18
2023-03-23T20:05:31.115Z,12.16
2023-03-23T20:08:07.606Z,12.20
2023-03-23T20:10:46.647Z,12.23
2023-03-23T20:13:31.957Z,12.27
2023-03-23T20:16:14.576Z,12.30
2023-03-23T20:18:50.691Z,12.34
2023-03-23T20:21:36.075Z,12.35
2023-03-23T20:24:12.662Z,12.35
2023-03-23T20:26:50.000Z,12.38
2023-03-23T20:29:31.855Z,12.39
2023-03-23T20:32:13.443Z,12.41
2023-03-23T20:34:50.007Z,12.44
2023-03-23T20:37:43.159Z,12.45
2023-03-23T20:40:21.859Z,12.46
2023-03-23T20:43:21.055Z,12.50
2023-03-23T20:45:58.012Z,12.50
2023-03-23T20:48:40.959Z,12.53
2023-03-23T20:51:23.363Z,12.54
2023-03-23T20:53:56.256Z,12.53
2023-03-23T20:56:33.659Z,12.54
2023-03-23T20:59:13.036Z,12.51
2023-03-23T21:01:51.148Z,12.51
2023-03-23T21:04:31.220Z,12.52
2023-03-23T21:07:07.926Z,12.52
2023-03-23T21:09:43.367Z,12.52
2023-03-23T21:12:20.488Z,12.52
2023-03-23T21:14:58.251Z,12.52
2023-03-23T21:17:35.057Z,12.51
2023-03-23T21:20:17.047Z,12.44
2023-03-23T21:22:53.661Z,12.31
2023-03-23T21:25:35.371Z,12.18
2023-03-23T21:28:11.005Z,12.05
2023-03-23T21:30:46.299Z,12.03
2023-03-23T21:33:24.926Z,12.03
2023-03-23T21:36:03.181Z,12.06
2023-03-23T21:38:40.457Z,12.09
2023-03-23T21:41:15.658Z,12.09
2023-03-23T21:43:52.371Z,12.02
2023-03-23T21:46:39.515Z,11.97
2023-03-23T21:49:16.899Z,11.94
2023-03-23T21:51:52.539Z,11.92
2023-03-23T21:54:31.148Z,11.90
2023-03-23T21:57:08.260Z,11.85
2023-03-23T21:59:47.311Z,11.80
2023-03-23T22:02:32.503Z,11.76
2023-03-23T22:05:10.097Z,11.70
2023-03-23T22:07:47.052Z,11.65
2023-03-23T22:10:25.883Z,11.61
2023-03-23T22:13:01.111Z,11.57
2023-03-23T22:15:37.807Z,11.54
2023-03-23T22:18:14.010Z,11.49
2023-03-23T22:20:52.358Z,11.44
2023-03-23T22:23:29.281Z,11.39
2023-03-23T22:26:09.278Z,11.34
2023-03-23T22:28:45.852Z,11.29
2023-03-23T22:31:23.622Z,11.25
2023-03-23T22:34:01.864Z,11.19
2023-03-23T22:36:36.763Z,11.14
2023-03-23T22:39:17.140Z,11.09
2023-03-23T22:41:53.912Z,11.03
2023-03-23T22:44:39.665Z,10.90
2023-03-23T22:47:14.893Z,10.86
2023-03-23T22:49:53.782Z,10.85
2023-03-23T22:52:29.346Z,10.83
2023-03-23T22:55:15.591Z,10.79
2023-03-23T22:57:59.157Z,10.75
2023-03-23T23:00:42.984Z,10.72
2023-03-23T23:03:19.404Z,10.69
2023-03-23T23:06:02.122Z,10.66
2023-03-23T23:08:39.746Z,10.64
2023-03-23T23:11:18.120Z,10.62
2023-03-23T23:13:55.272Z,10.62
2023-03-23T23:16:34.964Z,10.61
2023-03-23T23:19:17.371Z,10.58
2023-03-23T23:22:01.832Z,10.55
2023-03-23T23:24:49.122Z,10.50
2023-03-23T23:27:28.956Z,10.46
2023-03-23T23:30:04.224Z,10.43
2023-03-23T23:32:44.098Z,10.40
2023-03-23T23:35:20.850Z,10.37
2023-03-23T23:37:58.076Z,10.33
2023-03-23T23:40:37.637Z,10.27
2023-03-23T23:43:17.604Z,10.22
2023-03-23T23:45:56.794Z,10.18
2023-03-23T23:48:41.562Z,10.10
2023-03-23T23:51:18.592Z,10.04
2023-03-23T23:53:59.356Z,10.00
2023-03-23T23:56:37.971Z,9.95
2023-03-23T23:59:21.079Z,9.90
